Time;durP1;ratioP1;P1;durP2;ratioP2;P2;SDS_P1;SDS_P2;PMS_P1;PMS_P2;Temp;Humidity;BMP_temperature;BMP_pressure;BME280_temperature;BME280_humidity;BME280_pressure;Samples;Min_cycle;Max_cycle;Signal;HPM_P1;HPM_P2
2022/11/09 00:00:50;;;;;;;7.90;3.45;;;13.60;99.90;;;;;;5011918;28;20037;-66
2022/11/09 00:03:55;;;;;;;7.65;3.03;;;13.60;99.90;;;;;;5011628;28;20044;-66
2022/11/09 00:07:00;;;;;;;6.18;3.13;;;13.60;99.90;;;;;;5012057;28;20050;-66
2022/11/09 00:10:05;;;;;;;14.57;6.72;;;13.50;99.90;;;;;;5012151;28;20041;-66
2022/11/09 00:13:09;;;;;;;12.57;7.32;;;13.30;99.90;;;;;;5010623;28;20057;-66
2022/11/09 00:16:16;;;;;;;15.55;11.40;;;13.10;99.90;;;;;;5011495;28;20045;-66
2022/11/09 00:19:20;;;;;;;17.65;10.07;;;13.00;99.90;;;;;;5011974;28;20045;-66
2022/11/09 00:22:24;;;;;;;13.70;9.38;;;12.90;99.90;;;;;;5021931;28;20037;-66
2022/11/09 00:25:27;;;;;;;26.58;13.93;;;12.80;99.90;;;;;;5011112;28;20393;-66
2022/11/09 00:28:32;;;;;;;66.47;27.33;;;12.70;99.90;;;;;;5011306;28;20049;-65
2022/11/09 00:31:36;;;;;;;30.20;13.73;;;12.70;99.90;;;;;;5011518;28;20052;-66
2022/11/09 00:34:40;;;;;;;14.88;9.68;;;12.60;99.90;;;;;;5010593;28;20060;-66
2022/11/09 00:37:44;;;;;;;19.52;10.70;;;12.60;99.90;;;;;;5011548;28;20048;-66
2022/11/09 00:40:48;;;;;;;18.60;10.85;;;12.60;99.90;;;;;;5011637;28;20489;-66
2022/11/09 00:43:52;;;;;;;20.40;10.60;;;12.50;99.90;;;;;;5011190;28;20041;-67
2022/11/09 00:46:56;;;;;;;14.23;9.82;;;12.50;99.90;;;;;;5010406;28;20044;-67
2022/11/09 00:50:00;;;;;;;32.10;17.92;;;12.50;99.90;;;;;;5011457;28;20045;-66
2022/11/09 00:53:04;;;;;;;29.13;19.70;;;12.30;99.90;;;;;;5011547;28;20294;-66
2022/11/09 00:56:12;;;;;;;37.45;22.65;;;12.10;99.90;;;;;;5010979;28;20065;-66
2022/11/09 00:59:16;;;;;;;29.05;20.27;;;12.10;99.90;;;;;;5010467;28;20045;-66
2022/11/09 01:02:20;;;;;;;28.77;19.45;;;12.10;99.90;;;;;;5011864;28;20049;-66
2022/11/09 01:05:24;;;;;;;29.20;20.48;;;12.10;99.90;;;;;;5011614;28;20053;-66
2022/11/09 01:08:28;;;;;;;36.25;21.35;;;12.10;99.90;;;;;;5011458;28;20057;-67
2022/11/09 01:11:32;;;;;;;38.60;24.27;;;12.10;99.90;;;;;;5011761;28;20396;-67
2022/11/09 01:14:36;;;;;;;30.67;20.65;;;12.00;99.90;;;;;;5011276;28;20049;-67
2022/11/09 01:17:40;;;;;;;38.42;22.98;;;12.00;99.90;;;;;;5011090;28;20453;-66
2022/11/09 01:20:46;;;;;;;35.30;23.48;;;12.10;99.90;;;;;;5011580;28;20052;-67
2022/11/09 01:23:50;;;;;;;30.58;20.05;;;12.20;99.90;;;;;;5010599;28;20045;-67
2022/11/09 01:26:54;;;;;;;28.52;18.20;;;12.20;99.90;;;;;;5014153;28;20072;-66
2022/11/09 01:29:58;;;;;;;27.08;16.90;;;12.30;99.90;;;;;;5015426;28;20048;-66
2022/11/09 01:33:07;;;;;;;23.65;16.48;;;12.40;99.90;;;;;;5015070;28;20396;-67
2022/11/09 01:36:14;;;;;;;21.33;13.32;;;12.40;99.90;;;;;;5014895;28;20049;-67
2022/11/09 01:39:19;;;;;;;20.02;10.52;;;12.40;99.90;;;;;;5015148;28;20041;-66
2022/11/09 01:42:24;;;;;;;13.23;8.63;;;12.50;99.90;;;;;;5014950;28;20037;-66
2022/11/09 01:45:29;;;;;;;10.80;6.72;;;12.50;99.90;;;;;;5014545;28;20061;-66
2022/11/09 01:48:44;;;;;;;9.68;5.85;;;12.60;99.90;;;;;;5013997;28;20106;-66
2022/11/09 01:52:06;;;;;;;12.90;8.32;;;12.70;99.90;;;;;;5014862;28;20041;-67
2022/11/09 01:55:20;;;;;;;17.25;8.98;;;12.70;99.90;;;;;;5013596;28;20389;-66
2022/11/09 01:58:31;;;;;;;15.70;10.00;;;12.60;99.90;;;;;;5014954;28;20049;-67
2022/11/09 02:01:35;;;;;;;14.93;8.38;;;12.50;99.90;;;;;;5013506;28;20045;-66
2022/11/09 02:04:53;;;;;;;16.02;9.77;;;12.50;99.90;;;;;;5014186;28;20041;-66
2022/11/09 02:07:58;;;;;;;15.15;9.13;;;12.60;99.90;;;;;;5013632;28;20385;-66
2022/11/09 02:11:09;;;;;;;13.88;8.80;;;12.60;99.90;;;;;;5013701;28;20041;-66
2022/11/09 02:14:13;;;;;;;14.80;6.80;;;12.60;99.90;;;;;;5013231;28;20048;-66
2022/11/09 02:17:18;;;;;;;24.15;15.20;;;12.70;99.90;;;;;;5014280;28;20057;-66
2022/11/09 02:20:24;;;;;;;26.70;14.93;;;12.40;99.90;;;;;;5013311;28;20041;-66
2022/11/09 02:23:29;;;;;;;23.50;15.65;;;12.30;99.90;;;;;;5001993;28;20061;-66
2022/11/09 02:26:46;;;;;;;27.83;18.98;;;12.20;99.90;;;;;;5013288;28;20048;-67
2022/11/09 02:29:51;;;;;;;32.08;22.10;;;12.20;99.90;;;;;;5024601;28;20044;-67
2022/11/09 02:32:55;;;;;;;34.70;24.08;;;12.10;99.90;;;;;;5013217;28;20405;-67
2022/11/09 02:36:00;;;;;;;36.28;23.25;;;12.10;99.90;;;;;;5012315;28;20397;-67
2022/11/09 02:39:04;;;;;;;43.25;25.42;;;12.00;99.90;;;;;;5012943;28;20065;-66
2022/11/09 02:42:12;;;;;;;41.65;25.35;;;11.90;99.90;;;;;;5013037;28;20036;-67
2022/11/09 02:45:18;;;;;;;40.78;26.05;;;11.90;99.90;;;;;;5012688;28;20069;-66
2022/11/09 02:48:22;;;;;;;37.60;26.02;;;11.90;99.90;;;;;;5013731;28;20060;-66
2022/11/09 02:51:27;;;;;;;36.70;24.17;;;11.90;99.90;;;;;;5013180;28;20041;-66
2022/11/09 02:54:31;;;;;;;43.42;26.58;;;11.90;99.90;;;;;;5024235;28;20049;-66
2022/11/09 02:57:36;;;;;;;40.97;26.55;;;11.80;99.90;;;;;;5012890;28;20060;-67
2022/11/09 03:00:41;;;;;;;39.53;25.58;;;11.80;99.90;;;;;;5012920;28;20045;-66
2022/11/09 03:03:45;;;;;;;35.70;25.85;;;11.80;99.90;;;;;;5013296;28;20053;-66
2022/11/09 03:06:49;;;;;;;48.92;29.75;;;11.80;99.90;;;;;;5012635;28;20049;-66
2022/11/09 03:09:55;;;;;;;36.90;25.88;;;11.70;99.90;;;;;;5012470;28;20044;-66
2022/11/09 03:13:01;;;;;;;44.25;27.15;;;11.60;99.90;;;;;;5012403;28;20045;-67
2022/11/09 03:16:07;;;;;;;41.10;29.27;;;11.60;99.90;;;;;;5012434;28;20072;-66
2022/11/09 03:19:14;;;;;;;42.00;31.70;;;11.40;99.90;;;;;;5012129;28;20539;-67
2022/11/09 03:22:20;;;;;;;51.85;31.95;;;11.30;99.90;;;;;;5013179;28;20044;-66
2022/11/09 03:25:26;;;;;;;48.33;32.25;;;11.20;99.90;;;;;;5011959;28;20057;-66
2022/11/09 03:28:30;;;;;;;43.95;31.10;;;11.20;99.90;;;;;;5023512;28;20393;-67
2022/11/09 03:31:35;;;;;;;46.65;31.58;;;11.30;99.90;;;;;;5011972;28;20045;-67
2022/11/09 03:34:42;;;;;;;51.97;34.15;;;11.30;99.90;;;;;;5011798;28;20052;-66
2022/11/09 03:37:48;;;;;;;48.92;33.08;;;11.30;99.90;;;;;;5012334;28;20045;-66
2022/11/09 03:40:53;;;;;;;43.55;30.60;;;11.40;99.90;;;;;;5011782;28;20037;-66
2022/11/09 03:43:57;;;;;;;37.65;26.17;;;11.40;99.90;;;;;;5000483;28;20045;-66
2022/11/09 03:47:00;;;;;;;41.63;29.02;;;11.40;99.90;;;;;;5012694;28;20048;-66
2022/11/09 03:50:05;;;;;;;42.00;29.23;;;11.40;99.90;;;;;;5012683;28;20049;-66
2022/11/09 03:53:10;;;;;;;41.88;27.65;;;11.30;99.90;;;;;;5012511;28;20397;-67
2022/11/09 03:56:14;;;;;;;39.15;28.65;;;11.40;99.90;;;;;;5012476;28;20057;-66
2022/11/09 03:59:18;;;;;;;37.42;25.52;;;11.50;99.90;;;;;;5012098;28;20037;-66
2022/11/09 04:02:22;;;;;;;42.30;26.88;;;11.60;99.90;;;;;;5012452;28;20057;-66
2022/11/09 04:05:26;;;;;;;33.88;24.80;;;11.60;99.90;;;;;;5012247;28;20048;-67
2022/11/09 04:08:30;;;;;;;34.58;24.10;;;11.70;99.90;;;;;;5012585;28;20504;-67
2022/11/09 04:11:34;;;;;;;32.08;24.52;;;11.70;99.90;;;;;;5012135;28;20048;-66
2022/11/09 04:14:38;;;;;;;30.95;21.75;;;11.80;99.90;;;;;;5012115;28;20053;-66
2022/11/09 04:17:43;;;;;;;33.97;24.58;;;11.80;99.90;;;;;;5011999;28;20069;-66
2022/11/09 04:20:47;;;;;;;37.13;24.42;;;11.90;99.90;;;;;;5012269;28;20496;-67
2022/11/09 04:23:51;;;;;;;33.20;23.20;;;11.90;99.90;;;;;;5011750;28;20052;-66
2022/11/09 04:26:55;;;;;;;30.08;21.50;;;12.00;99.90;;;;;;5012018;28;20045;-67
2022/11/09 04:29:59;;;;;;;33.20;22.63;;;12.00;99.90;;;;;;5012172;28;20052;-67
2022/11/09 04:33:04;;;;;;;28.65;21.67;;;12.10;99.90;;;;;;5012022;28;20393;-66
2022/11/09 04:36:08;;;;;;;33.67;23.08;;;12.10;99.90;;;;;;5011622;28;20520;-67
2022/11/09 04:39:13;;;;;;;31.08;22.23;;;12.20;99.90;;;;;;5012090;28;20057;-67
2022/11/09 04:42:17;;;;;;;26.50;21.25;;;12.20;99.90;;;;;;5011842;28;20393;-67
2022/11/09 04:45:21;;;;;;;35.80;22.17;;;12.20;99.90;;;;;;5011367;28;20044;-66
2022/11/09 04:48:25;;;;;;;30.33;21.67;;;12.20;99.90;;;;;;5012121;28;20417;-66
2022/11/09 04:51:29;;;;;;;32.20;21.35;;;12.30;99.90;;;;;;5011259;28;20041;-67
2022/11/09 04:54:33;;;;;;;30.10;21.33;;;12.30;99.90;;;;;;5011835;28;20041;-66
2022/11/09 04:57:37;;;;;;;30.75;21.30;;;12.30;99.90;;;;;;5011814;28;20515;-67
2022/11/09 05:00:42;;;;;;;29.35;21.38;;;12.10;99.90;;;;;;5015115;28;20113;-67
2022/11/09 05:03:46;;;;;;;30.60;20.60;;;12.00;99.90;;;;;;5014887;28;20064;-66
2022/11/09 05:06:50;;;;;;;27.48;20.27;;;11.90;99.90;;;;;;5015699;28;20044;-66
2022/11/09 05:09:54;;;;;;;27.25;20.02;;;11.80;99.90;;;;;;5015798;28;20504;-66
2022/11/09 05:13:09;;;;;;;32.67;19.75;;;11.80;99.90;;;;;;5015602;28;20041;-66
2022/11/09 05:16:16;;;;;;;30.13;18.83;;;11.70;99.90;;;;;;5015440;28;20053;-66
2022/11/09 05:19:20;;;;;;;26.65;18.20;;;11.70;99.90;;;;;;5015557;28;20045;-66
2022/11/09 05:25:47;;;;;;;26.55;18.73;;;11.60;99.90;;;;;;5015347;28;20053;-67
2022/11/09 05:28:51;;;;;;;31.63;19.65;;;11.50;99.90;;;;;;5015982;28;20053;-66
2022/11/09 05:31:55;;;;;;;25.27;18.15;;;11.60;99.90;;;;;;5015153;28;20053;-66
2022/11/09 05:34:59;;;;;;;28.92;19.42;;;11.60;99.90;;;;;;5014866;28;20506;-66
2022/11/09 05:38:03;;;;;;;29.98;17.98;;;11.60;99.90;;;;;;5015195;28;20508;-67
2022/11/09 05:41:07;;;;;;;27.42;19.83;;;11.50;99.90;;;;;;5014878;28;20041;-66
2022/11/09 05:44:11;;;;;;;25.08;18.65;;;11.50;99.90;;;;;;5014977;28;20045;-67
2022/11/09 05:47:15;;;;;;;33.92;21.67;;;11.50;99.90;;;;;;5015073;28;20077;-66
2022/11/09 05:50:19;;;;;;;29.98;19.48;;;11.50;99.90;;;;;;5014992;28;20608;-67
2022/11/09 05:53:27;;;;;;;27.95;19.35;;;11.50;99.90;;;;;;5014801;28;20125;-67
2022/11/09 05:56:31;;;;;;;32.10;20.60;;;11.50;99.90;;;;;;5014818;28;20060;-66
2022/11/09 05:59:35;;;;;;;31.50;20.73;;;11.40;99.90;;;;;;5014826;28;20389;-67
2022/11/09 06:02:39;;;;;;;35.95;24.52;;;11.30;99.90;;;;;;5014757;28;20057;-67
2022/11/09 06:05:43;;;;;;;38.35;27.45;;;11.30;99.90;;;;;;5014563;28;20401;-67
2022/11/09 06:08:48;;;;;;;60.35;33.80;;;11.10;99.90;;;;;;5014432;28;20045;-66
2022/11/09 06:11:52;;;;;;;51.35;33.25;;;11.10;99.90;;;;;;5013807;28;20064;-66
2022/11/09 06:14:56;;;;;;;68.68;33.40;;;11.00;99.90;;;;;;5014161;28;20052;-67
2022/11/09 06:18:00;;;;;;;85.25;34.20;;;11.00;99.90;;;;;;5014550;28;20065;-66
2022/11/09 06:21:05;;;;;;;53.13;34.40;;;11.00;99.90;;;;;;5014492;28;20385;-67
2022/11/09 06:24:09;;;;;;;44.17;30.73;;;11.00;99.90;;;;;;5014147;28;20049;-66
2022/11/09 06:27:13;;;;;;;45.58;30.20;;;11.00;99.90;;;;;;5014586;28;20049;-66
2022/11/09 06:30:16;;;;;;;107.90;31.10;;;11.10;99.90;;;;;;5013932;28;20389;-66
2022/11/09 06:33:22;;;;;;;257.88;36.40;;;11.10;99.90;;;;;;5010234;28;20056;-66
2022/11/09 06:36:26;;;;;;;187.70;32.28;;;11.20;99.90;;;;;;5003849;28;20045;-66
2022/11/09 06:39:30;;;;;;;314.50;36.38;;;11.30;99.90;;;;;;5009982;28;20041;-66
2022/11/09 06:42:34;;;;;;;342.85;35.67;;;11.30;99.90;;;;;;5013634;28;20076;-66
2022/11/09 06:45:38;;;;;;;123.88;26.48;;;11.50;99.90;;;;;;5013493;28;20397;-66
2022/11/09 06:48:43;;;;;;;45.97;21.92;;;12.10;99.90;;;;;;5012770;28;20049;-67
2022/11/09 06:51:47;;;;;;;27.08;19.10;;;12.40;99.90;;;;;;5013683;28;20045;-66
2022/11/09 06:54:51;;;;;;;26.83;19.17;;;12.50;99.90;;;;;;5012907;28;20525;-66
2022/11/09 06:57:55;;;;;;;25.40;18.90;;;12.40;99.90;;;;;;5004360;28;20052;-67
2022/11/09 07:00:59;;;;;;;27.20;15.80;;;13.40;99.90;;;;;;5013185;28;20037;-66
2022/11/09 07:04:03;;;;;;;17.70;12.07;;;15.30;99.90;;;;;;5005986;28;20689;-67
2022/11/09 07:07:07;;;;;;;15.15;11.35;;;17.70;99.90;;;;;;5010538;28;20496;-66
2022/11/09 07:10:11;;;;;;;26.85;11.02;;;19.70;99.90;;;;;;5012765;28;20381;-66
2022/11/09 07:13:15;;;;;;;17.02;10.95;;;20.90;99.90;;;;;;5012361;28;20052;-66
2022/11/09 07:16:19;;;;;;;16.90;10.95;;;21.80;99.90;;;;;;5012900;28;20052;-67
2022/11/09 07:19:23;;;;;;;13.98;10.35;;;22.80;99.90;;;;;;5005795;28;20421;-67
2022/11/09 07:22:28;;;;;;;18.10;9.95;;;23.70;99.90;;;;;;5001236;28;20049;-66
2022/11/09 07:25:32;;;;;;;25.67;12.15;;;23.20;99.90;;;;;;5008552;28;20045;-67
2022/11/09 07:28:36;;;;;;;52.15;15.82;;;23.20;99.90;;;;;;5000631;28;20049;-67
2022/11/09 07:31:40;;;;;;;17.85;9.82;;;24.40;99.90;;;;;;5006834;28;20043;-67
2022/11/09 07:34:45;;;;;;;10.60;7.85;;;25.30;99.90;;;;;;5007455;28;20045;-67
2022/11/09 07:37:49;;;;;;;13.27;8.82;;;26.30;99.90;;;;;;5010002;28;20045;-67
2022/11/09 07:40:53;;;;;;;14.02;8.80;;;26.50;99.70;;;;;;5008344;28;20049;-67
2022/11/09 07:43:57;;;;;;;12.10;8.25;;;27.20;98.80;;;;;;5011063;28;20041;-67
2022/11/09 07:47:02;;;;;;;15.43;8.75;;;27.60;98.10;;;;;;5009252;28;20057;-68
2022/11/09 07:50:06;;;;;;;11.75;8.05;;;26.80;97.50;;;;;;5008025;28;20049;-68
2022/11/09 07:53:13;;;;;;;13.85;8.07;;;26.80;97.70;;;;;;5011093;28;20037;-67
2022/11/09 07:56:17;;;;;;;15.40;8.80;;;27.00;97.80;;;;;;5010750;28;20057;-65
2022/11/09 07:59:21;;;;;;;15.15;9.07;;;27.00;97.10;;;;;;5008839;28;20379;-68
2022/11/09 08:02:25;;;;;;;14.23;9.27;;;25.50;98.30;;;;;;4998980;28;20049;-67
2022/11/09 08:05:30;;;;;;;16.40;9.75;;;24.10;99.40;;;;;;5003550;28;20057;-67
2022/11/09 08:08:34;;;;;;;12.48;10.20;;;24.50;99.50;;;;;;5009726;28;20044;-67
2022/11/09 08:11:38;;;;;;;15.93;9.63;;;23.10;99.90;;;;;;5003675;28;20469;-67
2022/11/09 08:14:42;;;;;;;15.40;9.80;;;23.60;99.90;;;;;;5004879;28;20037;-64
2022/11/09 08:17:46;;;;;;;14.07;9.55;;;23.90;99.90;;;;;;5011118;28;20037;-64
2022/11/09 08:20:50;;;;;;;12.75;8.43;;;26.20;99.50;;;;;;5005345;28;20041;-67
2022/11/09 08:23:54;;;;;;;11.68;8.82;;;28.50;96.70;;;;;;5011178;28;20500;-67
2022/11/09 08:26:58;;;;;;;9.55;6.80;;;29.40;95.40;;;;;;5010743;28;20040;-67
2022/11/09 08:30:03;;;;;;;10.02;7.88;;;30.60;93.80;;;;;;4992777;28;20047;-67
2022/11/09 08:33:07;;;;;;;13.77;8.25;;;28.30;94.10;;;;;;4992274;28;20053;-67
2022/11/09 08:36:13;;;;;;;13.20;8.10;;;28.90;93.80;;;;;;5006793;28;20049;-67
2022/11/09 08:39:17;;;;;;;18.63;10.35;;;26.40;95.50;;;;;;5003234;28;20488;-66
2022/11/09 08:42:21;;;;;;;14.00;8.93;;;27.30;95.60;;;;;;5010483;28;20036;-67
2022/11/09 08:45:26;;;;;;;10.75;8.45;;;28.50;95.20;;;;;;5010726;28;20092;-67
2022/11/09 08:48:30;;;;;;;15.50;9.93;;;25.90;95.80;;;;;;5011628;28;20052;-67
2022/11/09 08:51:34;;;;;;;19.35;12.07;;;22.50;99.90;;;;;;5011452;28;20049;-67
2022/11/09 08:54:38;;;;;;;18.23;10.85;;;21.40;99.90;;;;;;5010800;28;20041;-67
2022/11/09 08:57:44;;;;;;;15.73;10.35;;;22.40;99.90;;;;;;5002832;28;20045;-66
2022/11/09 09:00:48;;;;;;;13.60;10.23;;;23.20;99.90;;;;;;5005488;28;20048;-66
2022/11/09 09:03:51;;;;;;;14.68;10.05;;;24.50;99.90;;;;;;5004854;28;20381;-67
2022/11/09 09:06:56;;;;;;;13.82;8.13;;;27.10;98.10;;;;;;5010594;28;20057;-67
2022/11/09 09:10:00;;;;;;;13.63;7.90;;;27.50;97.20;;;;;;5010581;28;20048;-67
2022/11/09 09:13:04;;;;;;;9.85;6.60;;;29.70;94.60;;;;;;5010329;28;20495;-67
2022/11/09 09:16:12;;;;;;;10.52;6.45;;;30.40;94.00;;;;;;5010027;28;20048;-67
2022/11/09 09:19:16;;;;;;;10.80;6.38;;;30.10;93.00;;;;;;5006447;28;20037;-67
2022/11/09 09:22:20;;;;;;;12.55;6.97;;;28.80;93.70;;;;;;5005861;28;20393;-68
2022/11/09 09:25:25;;;;;;;11.10;7.07;;;30.30;93.60;;;;;;5006986;28;20061;-67
2022/11/09 09:28:29;;;;;;;9.93;6.60;;;29.00;93.00;;;;;;5004916;28;20045;-67
2022/11/09 09:31:33;;;;;;;11.32;6.57;;;27.30;94.40;;;;;;5011004;28;20064;-67
2022/11/09 09:34:37;;;;;;;10.80;6.50;;;27.10;95.50;;;;;;5010052;28;20056;-67
2022/11/09 09:37:43;;;;;;;11.05;7.15;;;26.90;96.20;;;;;;4998057;28;20074;-67
2022/11/09 09:41:04;;;;;;;11.35;7.65;;;26.10;96.20;;;;;;4991849;28;20544;-67
2022/11/09 09:44:30;;;;;;;9.02;6.80;;;25.20;97.10;;;;;;5006227;28;20041;-67
2022/11/09 09:47:37;;;;;;;9.70;7.22;;;26.40;96.50;;;;;;5013301;28;20042;-67
2022/11/09 09:50:54;;;;;;;9.18;7.40;;;26.50;95.70;;;;;;5010168;28;20034;-66
2022/11/09 09:54:05;;;;;;;10.00;6.45;;;28.40;95.00;;;;;;5013091;28;20056;-66
2022/11/09 09:57:18;;;;;;;11.70;5.78;;;30.80;92.90;;;;;;5014018;28;20389;-67
2022/11/09 10:00:25;;;;;;;10.45;7.05;;;30.30;93.10;;;;;;5011649;28;20037;-67
2022/11/09 10:03:32;;;;;;;9.35;6.63;;;29.50;92.50;;;;;;5011418;28;20492;-67
2022/11/09 10:07:21;;;;;;;12.70;7.15;;;28.70;94.10;;;;;;5012942;28;20034;-67
2022/11/09 10:10:52;;;;;;;9.27;5.20;;;29.40;92.80;;;;;;5009166;28;20484;-67
2022/11/09 10:14:24;;;;;;;9.88;5.40;;;28.60;93.80;;;;;;5010983;28;20040;-67
2022/11/09 10:17:41;;;;;;;9.40;6.15;;;27.10;94.90;;;;;;5013104;28;20064;-66
2022/11/09 10:21:14;;;;;;;9.10;6.45;;;28.80;94.30;;;;;;5011469;28;20041;-67
2022/11/09 10:24:39;;;;;;;13.25;6.30;;;27.90;93.50;;;;;;5008730;28;20386;-66
2022/11/09 10:28:12;;;;;;;10.23;5.78;;;29.20;94.00;;;;;;4996701;28;20439;-67
2022/11/09 10:31:21;;;;;;;7.15;4.65;;;27.50;94.70;;;;;;5022035;28;20049;-67
2022/11/09 10:34:31;;;;;;;7.72;4.28;;;29.90;92.90;;;;;;5008070;28;20030;-66
2022/11/09 10:37:48;;;;;;;9.95;4.70;;;32.10;91.30;;;;;;5007559;28;20688;-66
2022/11/09 10:41:23;;;;;;;7.65;4.10;;;31.80;91.70;;;;;;5010769;28;20033;-67
2022/11/09 10:44:48;;;;;;;7.82;3.92;;;31.70;90.10;;;;;;5008882;28;20030;-67
2022/11/09 10:48:12;;;;;;;6.28;3.40;;;28.60;91.50;;;;;;5007578;28;20045;-67
2022/11/09 10:51:46;;;;;;;5.43;3.50;;;27.90;92.20;;;;;;5009312;28;20493;-67
2022/11/09 10:55:29;;;;;;;5.65;3.13;;;28.60;93.10;;;;;;5009407;28;20346;-66
2022/11/09 10:58:53;;;;;;;4.50;2.78;;;28.30;93.30;;;;;;5008996;28;20390;-66
2022/11/09 11:02:25;;;;;;;6.32;3.42;;;30.00;92.90;;;;;;5010993;28;20052;-66
2022/11/09 11:05:57;;;;;;;6.72;2.75;;;28.00;93.10;;;;;;5010496;28;20385;-66
2022/11/09 11:09:21;;;;;;;5.75;3.00;;;26.80;94.80;;;;;;5011607;28;20033;-67
2022/11/09 11:12:45;;;;;;;5.45;2.80;;;27.20;94.40;;;;;;5011707;28;20037;-67
2022/11/09 11:16:31;;;;;;;3.88;2.00;;;28.70;93.30;;;;;;5010384;28;20038;-66
2022/11/09 11:19:56;;;;;;;4.05;1.60;;;30.80;91.70;;;;;;5009524;28;20044;-67
2022/11/09 11:23:25;;;;;;;3.08;1.83;;;30.50;91.20;;;;;;5010961;28;20026;-66
2022/11/09 11:27:58;;;;;;;4.93;1.60;;;31.10;90.30;;;;;;4993920;28;20050;-67
2022/11/09 11:31:21;;;;;;;6.13;1.80;;;32.60;87.90;;;;;;4947894;28;20381;-66
2022/11/09 11:34:45;;;;;;;4.03;1.50;;;33.10;87.60;;;;;;5003040;28;20046;-66
2022/11/09 11:38:29;;;;;;;6.15;1.38;;;33.30;86.50;;;;;;5010241;28;20030;-67
2022/11/09 11:42:24;;;;;;;6.60;2.22;;;34.10;85.90;;;;;;5005949;28;20030;-67
2022/11/09 11:46:18;;;;;;;3.47;1.75;;;29.10;90.90;;;;;;5001602;28;20378;-67
2022/11/09 11:49:50;;;;;;;3.35;1.67;;;26.40;91.90;;;;;;5006942;28;20025;-66
2022/11/09 11:53:22;;;;;;;;;;;27.90;92.10;;;;;;5010860;28;20452;-67
2022/11/09 11:56:51;;;;;;;4.88;1.25;;;29.40;91.60;;;;;;5002878;28;19939;-67
2022/11/09 12:00:17;;;;;;;2.95;1.20;;;31.30;89.20;;;;;;5011337;28;20030;-67
2022/11/09 12:04:05;;;;;;;2.85;1.20;;;29.30;91.10;;;;;;5010840;28;20056;-67
2022/11/09 12:07:44;;;;;;;3.63;1.55;;;31.10;88.70;;;;;;5004894;28;20046;-66
2022/11/09 12:11:40;;;;;;;2.67;1.20;;;30.10;88.70;;;;;;5010097;28;20056;-67
2022/11/09 12:15:27;;;;;;;2.63;1.20;;;28.80;90.30;;;;;;5009213;28;20058;-66
2022/11/09 12:18:57;;;;;;;3.17;1.20;;;31.70;88.20;;;;;;5011298;28;20042;-66
2022/11/09 12:22:38;;;;;;;3.80;1.37;;;30.70;87.00;;;;;;4998696;28;20499;-66
2022/11/09 12:26:30;;;;;;;3.25;1.15;;;29.20;89.50;;;;;;5010069;28;20500;-65
2022/11/09 12:30:16;;;;;;;3.58;1.27;;;31.40;87.70;;;;;;5007084;28;20045;-67
2022/11/09 12:33:51;;;;;;;2.47;1.27;;;29.20;88.60;;;;;;5005277;28;20037;-66
2022/11/09 12:37:22;;;;;;;7.88;1.30;;;26.40;90.80;;;;;;5007157;28;20049;-66
2022/11/09 12:40:55;;;;;;;2.67;0.98;;;26.30;92.60;;;;;;5006954;28;20491;-65
2022/11/09 12:44:30;;;;;;;3.60;1.50;;;28.40;91.00;;;;;;5009964;28;20496;-66
2022/11/09 12:47:57;;;;;;;3.15;1.08;;;28.40;91.40;;;;;;5002335;28;20389;-66
2022/11/09 12:51:21;;;;;;;3.85;1.23;;;29.80;89.60;;;;;;5009996;28;20033;-66
2022/11/09 12:54:47;;;;;;;5.03;1.40;;;30.70;88.70;;;;;;5003264;28;20052;-66
2022/11/09 12:58:30;;;;;;;3.03;1.30;;;28.10;89.70;;;;;;5016604;28;20045;-66
2022/11/09 13:01:58;;;;;;;4.15;1.35;;;29.50;89.90;;;;;;5007778;28;20053;-66
2022/11/09 13:05:34;;;;;;;4.53;1.48;;;29.80;89.50;;;;;;5009195;28;20052;-67
2022/11/09 13:09:00;;;;;;;3.38;1.40;;;30.80;89.00;;;;;;5005166;28;20048;-66
2022/11/09 13:12:38;;;;;;;3.10;1.23;;;30.10;88.00;;;;;;5003947;28;20038;-65
2022/11/09 13:16:31;;;;;;;5.13;1.88;;;29.10;90.10;;;;;;5009298;28;20053;-66
2022/11/09 13:19:55;;;;;;;3.65;1.58;;;26.50;91.50;;;;;;5014872;28;20180;-66
2022/11/09 13:23:30;;;;;;;3.67;2.00;;;24.60;93.20;;;;;;5008982;28;20049;-66
2022/11/09 13:26:59;;;;;;;5.97;2.25;;;24.40;94.90;;;;;;5014122;28;20052;-66
2022/11/09 13:30:27;;;;;;;3.28;1.88;;;25.10;93.60;;;;;;5017814;28;20472;-65
2022/11/09 13:34:28;;;;;;;3.75;1.88;;;23.60;95.10;;;;;;5006098;28;20492;-66
2022/11/09 13:37:55;;;;;;;4.83;2.47;;;24.10;95.50;;;;;;5011777;28;20041;-65
2022/11/09 13:41:30;;;;;;;2.35;1.92;;;24.90;94.90;;;;;;5003877;28;20033;-65
2022/11/09 13:45:13;;;;;;;5.03;2.08;;;24.80;95.00;;;;;;5012248;28;20037;-66
2022/11/09 13:48:49;;;;;;;4.88;1.88;;;25.40;93.90;;;;;;5004810;28;20045;-65
2022/11/09 13:52:40;;;;;;;3.17;1.58;;;24.80;94.30;;;;;;5005661;28;20057;-66
2022/11/09 13:56:28;;;;;;;4.05;2.08;;;25.40;94.10;;;;;;5011868;28;20136;-66
2022/11/09 13:59:51;;;;;;;5.22;2.13;;;24.90;94.40;;;;;;5013414;28;20057;-65
2022/11/09 14:03:24;;;;;;;7.10;2.20;;;25.30;94.00;;;;;;5021805;28;20133;-65
2022/11/09 14:06:46;;;;;;;4.25;1.90;;;26.10;93.60;;;;;;5019604;28;20041;-65
2022/11/09 14:10:17;;;;;;;4.85;1.88;;;23.80;94.70;;;;;;5011648;28;20053;-65
2022/11/09 14:14:22;;;;;;;6.20;2.20;;;23.80;95.40;;;;;;5011427;28;20048;-64
2022/11/09 14:18:02;;;;;;;9.52;2.55;;;22.70;96.80;;;;;;5008194;28;20057;-65
2022/11/09 14:21:56;;;;;;;2.35;1.65;;;23.10;96.90;;;;;;5007655;28;20037;-65
2022/11/09 14:25:21;;;;;;;3.45;2.53;;;23.80;96.10;;;;;;5015926;28;20049;-66
2022/11/09 14:28:44;;;;;;;3.33;1.90;;;23.80;96.50;;;;;;5006923;28;20041;-65
2022/11/09 14:32:34;;;;;;;4.43;2.38;;;23.00;97.40;;;;;;5011159;28;20037;-65
2022/11/09 14:35:58;;;;;;;4.32;2.50;;;22.70;98.20;;;;;;5020995;28;20040;-65
2022/11/09 14:39:29;;;;;;;4.30;2.38;;;22.10;99.20;;;;;;5015128;28;20044;-65
2022/11/09 14:42:58;;;;;;;8.07;2.60;;;21.80;99.90;;;;;;5011695;28;20033;-65
2022/11/09 14:46:29;;;;;;;6.82;2.63;;;21.30;99.90;;;;;;5014643;28;20508;-65
2022/11/09 14:49:52;;;;;;;3.70;2.35;;;20.70;99.90;;;;;;5013549;28;20504;-65
2022/11/09 14:53:27;;;;;;;6.00;2.60;;;20.60;99.90;;;;;;5018102;28;20056;-65
2022/11/09 14:56:51;;;;;;;6.00;2.38;;;20.30;99.90;;;;;;5017593;28;20540;-65
2022/11/09 15:00:31;;;;;;;4.30;2.15;;;20.10;99.90;;;;;;5012804;28;20040;-65
2022/11/09 15:04:18;;;;;;;6.50;2.28;;;19.90;99.90;;;;;;5011227;28;20057;-65
2022/11/09 15:07:45;;;;;;;5.80;2.30;;;19.60;99.90;;;;;;5009911;28;20033;-65
2022/11/09 15:11:08;;;;;;;5.38;2.45;;;19.40;99.90;;;;;;5012632;28;20040;-64
2022/11/09 15:14:33;;;;;;;4.38;2.30;;;19.00;99.90;;;;;;5018695;28;20045;-64
2022/11/09 15:17:56;;;;;;;5.43;2.78;;;18.80;99.90;;;;;;5018291;28;20033;-66
2022/11/09 15:21:31;;;;;;;6.25;2.33;;;18.50;99.90;;;;;;5029531;28;20044;-66
2022/11/09 15:24:54;;;;;;;6.78;2.45;;;18.20;99.90;;;;;;5021311;28;20590;-67
2022/11/09 15:28:20;;;;;;;6.00;2.80;;;17.90;99.90;;;;;;5020120;28;20053;-67
2022/11/09 15:31:57;;;;;;;7.22;2.85;;;17.80;99.90;;;;;;4993665;28;20489;-67
2022/11/09 15:35:20;;;;;;;6.72;2.70;;;17.50;99.90;;;;;;5006648;28;20044;-67
2022/11/09 15:39:11;;;;;;;10.02;3.30;;;17.30;99.90;;;;;;5017538;28;20049;-66
2022/11/09 15:42:34;;;;;;;5.07;3.10;;;17.20;99.90;;;;;;5011229;28;20676;-66
2022/11/09 15:45:58;;;;;;;5.95;3.03;;;16.90;99.90;;;;;;5016479;28;20492;-66
2022/11/09 15:49:25;;;;;;;4.88;2.67;;;16.80;99.90;;;;;;5016232;28;20057;-66
2022/11/09 15:52:48;;;;;;;6.30;3.15;;;16.70;99.90;;;;;;5007420;28;20049;-66
2022/11/09 15:56:21;;;;;;;6.55;3.53;;;16.50;99.90;;;;;;5016003;28;20041;-66
2022/11/09 15:59:45;;;;;;;9.30;4.15;;;16.40;99.90;;;;;;5014723;28;20045;-67
2022/11/09 16:03:09;;;;;;;5.43;3.47;;;16.20;99.90;;;;;;5019861;28;20041;-66
2022/11/09 16:06:31;;;;;;;9.57;3.88;;;16.10;99.90;;;;;;5026358;28;20495;-66
2022/11/09 16:09:54;;;;;;;7.30;2.83;;;16.00;99.90;;;;;;5018469;28;20048;-66
2022/11/09 16:13:17;;;;;;;7.00;2.67;;;15.90;99.90;;;;;;5005788;28;20040;-65
2022/11/09 16:16:40;;;;;;;5.28;2.75;;;15.90;99.90;;;;;;5018865;28;20400;-66
2022/11/09 16:20:03;;;;;;;8.50;2.50;;;15.90;99.90;;;;;;5011814;28;20053;-66
2022/11/09 16:23:26;;;;;;;4.80;2.47;;;16.00;99.90;;;;;;5017922;28;20045;-66
2022/11/09 16:26:49;;;;;;;5.63;2.67;;;15.90;99.90;;;;;;5015828;28;20037;-66
2022/11/09 16:30:12;;;;;;;7.85;3.08;;;15.90;99.90;;;;;;5017037;28;20040;-66
2022/11/09 16:33:36;;;;;;;4.00;2.47;;;16.00;99.90;;;;;;5013597;28;20044;-65
2022/11/09 16:36:58;;;;;;;7.07;2.50;;;15.90;99.90;;;;;;5008847;28;20037;-66
2022/11/09 16:40:22;;;;;;;4.00;2.75;;;15.90;99.90;;;;;;5018663;28;20045;-66
2022/11/09 16:43:47;;;;;;;5.55;2.63;;;15.90;99.90;;;;;;5002218;28;20045;-66